sensor_id;sensor_type;location;lat;lon;timestamp;P1;durP1;ratioP1;P2;durP2;ratioP2
6131;SDS011;3097;42.692;23.278;2023-08-30T00:00:56;8.40;;;7.57;;
6131;SDS011;3097;42.692;23.278;2023-08-30T00:03:21;8.07;;;7.37;;
6131;SDS011;3097;42.692;23.278;2023-08-30T00:05:47;7.67;;;6.97;;
6131;SDS011;3097;42.692;23.278;2023-08-30T00:08:12;7.73;;;6.93;;
6131;SDS011;3097;42.692;23.278;2023-08-30T00:10:43;6.57;;;5.83;;
6131;SDS011;3097;42.692;23.278;2023-08-30T00:13:08;10.77;;;6.73;;
6131;SDS011;3097;42.692;23.278;2023-08-30T00:15:33;7.07;;;6.47;;
6131;SDS011;3097;42.692;23.278;2023-08-30T00:17:59;7.50;;;5.97;;
6131;SDS011;3097;42.692;23.278;2023-08-30T00:20:24;8.00;;;6.73;;
6131;SDS011;3097;42.692;23.278;2023-08-30T00:22:50;9.13;;;6.97;;
6131;SDS011;3097;42.692;23.278;2023-08-30T00:25:15;6.90;;;6.10;;
6131;SDS011;3097;42.692;23.278;2023-08-30T00:27:41;7.90;;;6.10;;
6131;SDS011;3097;42.692;23.278;2023-08-30T00:30:07;6.17;;;5.67;;
6131;SDS011;3097;42.692;23.278;2023-08-30T00:32:34;6.27;;;5.67;;
6131;SDS011;3097;42.692;23.278;2023-08-30T00:34:59;6.00;;;5.50;;
6131;SDS011;3097;42.692;23.278;2023-08-30T00:37:25;6.37;;;5.77;;
6131;SDS011;3097;42.692;23.278;2023-08-30T00:39:50;6.57;;;6.00;;
6131;SDS011;3097;42.692;23.278;2023-08-30T00:42:15;5.83;;;5.37;;
6131;SDS011;3097;42.692;23.278;2023-08-30T00:44:41;6.70;;;5.97;;
6131;SDS011;3097;42.692;23.278;2023-08-30T00:47:08;5.90;;;5.33;;
6131;SDS011;3097;42.692;23.278;2023-08-30T00:49:35;6.60;;;6.00;;
6131;SDS011;3097;42.692;23.278;2023-08-30T00:52:06;6.47;;;5.87;;
6131;SDS011;3097;42.692;23.278;2023-08-30T00:54:33;6.73;;;6.03;;
6131;SDS011;3097;42.692;23.278;2023-08-30T00:57:00;6.03;;;5.47;;
6131;SDS011;3097;42.692;23.278;2023-08-30T00:59:28;6.90;;;5.63;;
6131;SDS011;3097;42.692;23.278;2023-08-30T01:01:57;5.93;;;5.43;;
6131;SDS011;3097;42.692;23.278;2023-08-30T01:04:23;6.60;;;5.83;;
6131;SDS011;3097;42.692;23.278;2023-08-30T01:06:49;8.57;;;5.53;;
6131;SDS011;3097;42.692;23.278;2023-08-30T01:09:14;5.97;;;5.40;;
6131;SDS011;3097;42.692;23.278;2023-08-30T01:14:31;6.10;;;5.50;;
6131;SDS011;3097;42.692;23.278;2023-08-30T01:17:04;5.10;;;4.60;;
6131;SDS011;3097;42.692;23.278;2023-08-30T01:20:13;5.27;;;4.77;;
6131;SDS011;3097;42.692;23.278;2023-08-30T01:28:03;5.17;;;4.67;;
6131;SDS011;3097;42.692;23.278;2023-08-30T01:30:33;8.03;;;5.20;;
6131;SDS011;3097;42.692;23.278;2023-08-30T01:33:02;5.10;;;4.60;;
6131;SDS011;3097;42.692;23.278;2023-08-30T01:35:29;7.63;;;5.30;;
6131;SDS011;3097;42.692;23.278;2023-08-30T01:38:01;5.80;;;5.20;;
6131;SDS011;3097;42.692;23.278;2023-08-30T01:40:28;6.13;;;5.53;;
6131;SDS011;3097;42.692;23.278;2023-08-30T01:42:55;5.27;;;4.77;;
6131;SDS011;3097;42.692;23.278;2023-08-30T01:45:23;5.83;;;5.33;;
6131;SDS011;3097;42.692;23.278;2023-08-30T01:47:49;5.80;;;5.30;;
6131;SDS011;3097;42.692;23.278;2023-08-30T01:50:17;5.90;;;4.83;;
6131;SDS011;3097;42.692;23.278;2023-08-30T01:52:44;5.60;;;5.10;;
6131;SDS011;3097;42.692;23.278;2023-08-30T01:55:12;7.20;;;5.70;;
6131;SDS011;3097;42.692;23.278;2023-08-30T01:57:39;6.57;;;5.00;;
6131;SDS011;3097;42.692;23.278;2023-08-30T02:00:05;5.70;;;5.10;;
6131;SDS011;3097;42.692;23.278;2023-08-30T02:02:31;7.60;;;5.20;;
6131;SDS011;3097;42.692;23.278;2023-08-30T02:04:56;5.60;;;5.00;;
6131;SDS011;3097;42.692;23.278;2023-08-30T02:07:25;7.23;;;5.23;;
6131;SDS011;3097;42.692;23.278;2023-08-30T02:09:58;5.33;;;4.90;;
6131;SDS011;3097;42.692;23.278;2023-08-30T02:12:31;5.80;;;5.10;;
6131;SDS011;3097;42.692;23.278;2023-08-30T02:15:04;7.07;;;5.37;;
6131;SDS011;3097;42.692;23.278;2023-08-30T02:17:33;6.10;;;5.47;;
6131;SDS011;3097;42.692;23.278;2023-08-30T02:20:00;5.67;;;5.20;;
6131;SDS011;3097;42.692;23.278;2023-08-30T02:22:26;5.83;;;5.33;;
6131;SDS011;3097;42.692;23.278;2023-08-30T02:24:51;5.77;;;5.27;;
6131;SDS011;3097;42.692;23.278;2023-08-30T02:27:17;6.10;;;5.60;;
6131;SDS011;3097;42.692;23.278;2023-08-30T02:29:42;5.60;;;5.20;;
6131;SDS011;3097;42.692;23.278;2023-08-30T02:32:07;5.67;;;5.17;;
6131;SDS011;3097;42.692;23.278;2023-08-30T02:34:33;6.03;;;5.53;;
6131;SDS011;3097;42.692;23.278;2023-08-30T02:37:00;7.03;;;5.70;;
6131;SDS011;3097;42.692;23.278;2023-08-30T02:39:27;10.00;;;5.80;;
6131;SDS011;3097;42.692;23.278;2023-08-30T02:41:52;6.20;;;5.23;;
6131;SDS011;3097;42.692;23.278;2023-08-30T02:44:18;6.43;;;5.77;;
6131;SDS011;3097;42.692;23.278;2023-08-30T02:46:43;5.57;;;5.07;;
6131;SDS011;3097;42.692;23.278;2023-08-30T02:49:09;7.10;;;6.30;;
6131;SDS011;3097;42.692;23.278;2023-08-30T02:51:36;7.03;;;6.00;;
6131;SDS011;3097;42.692;23.278;2023-08-30T02:54:01;6.20;;;5.70;;
6131;SDS011;3097;42.692;23.278;2023-08-30T02:56:27;6.57;;;5.90;;
6131;SDS011;3097;42.692;23.278;2023-08-30T02:58:53;6.93;;;6.23;;
6131;SDS011;3097;42.692;23.278;2023-08-30T03:01:18;7.00;;;6.30;;
6131;SDS011;3097;42.692;23.278;2023-08-30T03:03:45;6.87;;;6.17;;
6131;SDS011;3097;42.692;23.278;2023-08-30T03:06:11;6.67;;;6.07;;
6131;SDS011;3097;42.692;23.278;2023-08-30T03:08:37;7.13;;;6.37;;
6131;SDS011;3097;42.692;23.278;2023-08-30T03:11:09;7.20;;;6.30;;
6131;SDS011;3097;42.692;23.278;2023-08-30T03:13:35;6.50;;;5.90;;
6131;SDS011;3097;42.692;23.278;2023-08-30T03:16:02;6.97;;;6.10;;
6131;SDS011;3097;42.692;23.278;2023-08-30T03:18:34;6.10;;;5.50;;
6131;SDS011;3097;42.692;23.278;2023-08-30T03:21:00;5.80;;;5.20;;
6131;SDS011;3097;42.692;23.278;2023-08-30T03:23:27;7.93;;;5.07;;
6131;SDS011;3097;42.692;23.278;2023-08-30T03:25:52;5.33;;;4.93;;
6131;SDS011;3097;42.692;23.278;2023-08-30T03:28:18;5.30;;;4.87;;
6131;SDS011;3097;42.692;23.278;2023-08-30T03:30:43;5.10;;;4.50;;
6131;SDS011;3097;42.692;23.278;2023-08-30T03:33:08;6.53;;;5.00;;
6131;SDS011;3097;42.692;23.278;2023-08-30T03:35:34;5.73;;;5.23;;
6131;SDS011;3097;42.692;23.278;2023-08-30T03:38:03;6.27;;;5.10;;
6131;SDS011;3097;42.692;23.278;2023-08-30T03:40:29;6.60;;;5.47;;
6131;SDS011;3097;42.692;23.278;2023-08-30T03:42:55;6.10;;;5.50;;
6131;SDS011;3097;42.692;23.278;2023-08-30T03:45:20;7.40;;;4.63;;
6131;SDS011;3097;42.692;23.278;2023-08-30T03:47:45;5.47;;;4.97;;
6131;SDS011;3097;42.692;23.278;2023-08-30T03:50:11;6.47;;;5.10;;
6131;SDS011;3097;42.692;23.278;2023-08-30T03:52:36;5.77;;;5.10;;
6131;SDS011;3097;42.692;23.278;2023-08-30T03:55:02;5.97;;;5.00;;
6131;SDS011;3097;42.692;23.278;2023-08-30T03:57:29;6.73;;;5.57;;
6131;SDS011;3097;42.692;23.278;2023-08-30T03:59:57;8.90;;;5.40;;
6131;SDS011;3097;42.692;23.278;2023-08-30T04:02:23;5.93;;;5.00;;
6131;SDS011;3097;42.692;23.278;2023-08-30T04:04:48;8.43;;;5.70;;
6131;SDS011;3097;42.692;23.278;2023-08-30T04:07:14;5.20;;;4.80;;
6131;SDS011;3097;42.692;23.278;2023-08-30T04:09:41;6.67;;;5.67;;
6131;SDS011;3097;42.692;23.278;2023-08-30T04:12:06;7.27;;;5.47;;
6131;SDS011;3097;42.692;23.278;2023-08-30T04:14:32;7.63;;;5.37;;
6131;SDS011;3097;42.692;23.278;2023-08-30T04:16:57;5.93;;;5.00;;
6131;SDS011;3097;42.692;23.278;2023-08-30T04:19:23;7.70;;;5.07;;
6131;SDS011;3097;42.692;23.278;2023-08-30T04:21:48;5.87;;;5.37;;
6131;SDS011;3097;42.692;23.278;2023-08-30T04:24:14;7.73;;;5.40;;
6131;SDS011;3097;42.692;23.278;2023-08-30T04:26:40;8.63;;;6.20;;
6131;SDS011;3097;42.692;23.278;2023-08-30T04:29:06;6.90;;;6.07;;
6131;SDS011;3097;42.692;23.278;2023-08-30T04:31:31;7.77;;;5.77;;
6131;SDS011;3097;42.692;23.278;2023-08-30T04:33:57;6.10;;;5.60;;
6131;SDS011;3097;42.692;23.278;2023-08-30T04:36:22;10.37;;;6.87;;
6131;SDS011;3097;42.692;23.278;2023-08-30T04:38:48;9.00;;;5.50;;
6131;SDS011;3097;42.692;23.278;2023-08-30T04:41:13;7.93;;;4.73;;
6131;SDS011;3097;42.692;23.278;2023-08-30T04:43:39;6.67;;;3.87;;
6131;SDS011;3097;42.692;23.278;2023-08-30T04:46:04;4.53;;;4.13;;
6131;SDS011;3097;42.692;23.278;2023-08-30T04:48:30;6.47;;;4.57;;
6131;SDS011;3097;42.692;23.278;2023-08-30T04:51:03;7.50;;;4.37;;
6131;SDS011;3097;42.692;23.278;2023-08-30T04:53:29;3.70;;;3.30;;
6131;SDS011;3097;42.692;23.278;2023-08-30T04:55:56;4.27;;;3.77;;
6131;SDS011;3097;42.692;23.278;2023-08-30T04:58:21;4.67;;;4.20;;
6131;SDS011;3097;42.692;23.278;2023-08-30T05:00:47;5.73;;;3.90;;
6131;SDS011;3097;42.692;23.278;2023-08-30T05:03:12;4.37;;;3.30;;
6131;SDS011;3097;42.692;23.278;2023-08-30T05:05:38;4.90;;;3.13;;
6131;SDS011;3097;42.692;23.278;2023-08-30T05:08:03;8.83;;;3.27;;
6131;SDS011;3097;42.692;23.278;2023-08-30T05:10:29;3.43;;;3.13;;
6131;SDS011;3097;42.692;23.278;2023-08-30T05:12:54;3.70;;;3.40;;
6131;SDS011;3097;42.692;23.278;2023-08-30T05:15:20;5.73;;;3.40;;
6131;SDS011;3097;42.692;23.278;2023-08-30T05:17:46;5.70;;;3.50;;
6131;SDS011;3097;42.692;23.278;2023-08-30T05:20:12;4.43;;;3.10;;
6131;SDS011;3097;42.692;23.278;2023-08-30T05:22:37;4.47;;;3.77;;
6131;SDS011;3097;42.692;23.278;2023-08-30T05:25:03;5.57;;;3.50;;
6131;SDS011;3097;42.692;23.278;2023-08-30T05:27:28;3.60;;;3.30;;
6131;SDS011;3097;42.692;23.278;2023-08-30T05:29:54;3.70;;;3.40;;
6131;SDS011;3097;42.692;23.278;2023-08-30T05:32:21;3.90;;;3.10;;
6131;SDS011;3097;42.692;23.278;2023-08-30T05:34:47;3.47;;;3.07;;
6131;SDS011;3097;42.692;23.278;2023-08-30T05:37:12;3.37;;;3.07;;
6131;SDS011;3097;42.692;23.278;2023-08-30T05:39:38;6.67;;;3.20;;
6131;SDS011;3097;42.692;23.278;2023-08-30T05:42:03;3.63;;;3.00;;
6131;SDS011;3097;42.692;23.278;2023-08-30T05:44:29;4.20;;;3.27;;
6131;SDS011;3097;42.692;23.278;2023-08-30T05:46:55;3.47;;;3.07;;
6131;SDS011;3097;42.692;23.278;2023-08-30T05:49:20;3.40;;;3.10;;
6131;SDS011;3097;42.692;23.278;2023-08-30T05:51:46;3.43;;;2.80;;
6131;SDS011;3097;42.692;23.278;2023-08-30T05:54:13;3.50;;;3.20;;
6131;SDS011;3097;42.692;23.278;2023-08-30T05:56:39;2.92;;;2.72;;
6131;SDS011;3097;42.692;23.278;2023-08-30T05:59:04;3.25;;;2.60;;
6131;SDS011;3097;42.692;23.278;2023-08-30T06:01:30;3.05;;;2.75;;
6131;SDS011;3097;42.692;23.278;2023-08-30T06:03:55;3.20;;;2.97;;
6131;SDS011;3097;42.692;23.278;2023-08-30T06:06:20;4.15;;;3.13;;
6131;SDS011;3097;42.692;23.278;2023-08-30T06:08:46;4.57;;;3.08;;
6131;SDS011;3097;42.692;23.278;2023-08-30T06:11:12;3.25;;;2.78;;
6131;SDS011;3097;42.692;23.278;2023-08-30T06:13:38;3.72;;;3.10;;
6131;SDS011;3097;42.692;23.278;2023-08-30T06:16:03;4.70;;;2.80;;
6131;SDS011;3097;42.692;23.278;2023-08-30T06:18:29;4.30;;;3.10;;
6131;SDS011;3097;42.692;23.278;2023-08-30T06:20:56;2.95;;;2.75;;
6131;SDS011;3097;42.692;23.278;2023-08-30T06:23:21;3.50;;;3.20;;
6131;SDS011;3097;42.692;23.278;2023-08-30T06:25:53;3.83;;;3.40;;
6131;SDS011;3097;42.692;23.278;2023-08-30T06:28:22;3.38;;;3.15;;
6131;SDS011;3097;42.692;23.278;2023-08-30T06:30:48;4.25;;;3.50;;
6131;SDS011;3097;42.692;23.278;2023-08-30T06:33:14;2.67;;;2.47;;
6131;SDS011;3097;42.692;23.278;2023-08-30T06:35:39;3.25;;;3.05;;
6131;SDS011;3097;42.692;23.278;2023-08-30T06:38:05;2.95;;;2.75;;
6131;SDS011;3097;42.692;23.278;2023-08-30T06:40:30;4.32;;;2.78;;
6131;SDS011;3097;42.692;23.278;2023-08-30T06:42:56;3.13;;;2.92;;
6131;SDS011;3097;42.692;23.278;2023-08-30T06:45:22;3.58;;;3.33;;
6131;SDS011;3097;42.692;23.278;2023-08-30T06:47:48;3.55;;;3.25;;
6131;SDS011;3097;42.692;23.278;2023-08-30T06:50:14;4.32;;;3.70;;
6131;SDS011;3097;42.692;23.278;2023-08-30T06:52:39;4.82;;;3.10;;
6131;SDS011;3097;42.692;23.278;2023-08-30T06:55:05;3.87;;;3.57;;
6131;SDS011;3097;42.692;23.278;2023-08-30T06:57:30;4.60;;;3.50;;
6131;SDS011;3097;42.692;23.278;2023-08-30T06:59:56;3.53;;;3.23;;
6131;SDS011;3097;42.692;23.278;2023-08-30T07:02:22;3.50;;;3.17;;
6131;SDS011;3097;42.692;23.278;2023-08-30T07:04:47;6.53;;;3.70;;
6131;SDS011;3097;42.692;23.278;2023-08-30T07:07:13;3.57;;;3.17;;
6131;SDS011;3097;42.692;23.278;2023-08-30T07:09:39;3.45;;;3.15;;
6131;SDS011;3097;42.692;23.278;2023-08-30T07:12:05;3.25;;;3.05;;
6131;SDS011;3097;42.692;23.278;2023-08-30T07:14:30;3.75;;;3.45;;
6131;SDS011;3097;42.692;23.278;2023-08-30T07:16:56;3.40;;;3.20;;
6131;SDS011;3097;42.692;23.278;2023-08-30T07:19:21;3.10;;;2.90;;
6131;SDS011;3097;42.692;23.278;2023-08-30T07:21:47;4.47;;;3.08;;
6131;SDS011;3097;42.692;23.278;2023-08-30T07:24:13;3.50;;;3.20;;
6131;SDS011;3097;42.692;23.278;2023-08-30T07:26:38;3.65;;;3.35;;
6131;SDS011;3097;42.692;23.278;2023-08-30T07:29:04;3.90;;;3.60;;
6131;SDS011;3097;42.692;23.278;2023-08-30T07:31:34;3.60;;;3.30;;
6131;SDS011;3097;42.692;23.278;2023-08-30T07:34:00;3.75;;;3.42;;
6131;SDS011;3097;42.692;23.278;2023-08-30T07:36:26;3.50;;;3.30;;
6131;SDS011;3097;42.692;23.278;2023-08-30T07:38:53;3.70;;;3.40;;
6131;SDS011;3097;42.692;23.278;2023-08-30T07:41:19;3.90;;;3.60;;
6131;SDS011;3097;42.692;23.278;2023-08-30T07:43:44;4.55;;;3.78;;
6131;SDS011;3097;42.692;23.278;2023-08-30T07:46:10;3.65;;;3.35;;
6131;SDS011;3097;42.692;23.278;2023-08-30T07:48:35;4.68;;;3.38;;
6131;SDS011;3097;42.692;23.278;2023-08-30T07:51:00;3.40;;;3.13;;
6131;SDS011;3097;42.692;23.278;2023-08-30T07:53:26;3.92;;;3.63;;
6131;SDS011;3097;42.692;23.278;2023-08-30T07:55:51;3.80;;;3.38;;
6131;SDS011;3097;42.692;23.278;2023-08-30T07:58:17;4.32;;;3.63;;
6131;SDS011;3097;42.692;23.278;2023-08-30T08:00:43;4.45;;;3.42;;
6131;SDS011;3097;42.692;23.278;2023-08-30T08:03:08;3.78;;;3.47;;
6131;SDS011;3097;42.692;23.278;2023-08-30T08:05:35;3.80;;;3.38;;
6131;SDS011;3097;42.692;23.278;2023-08-30T08:08:01;5.57;;;3.33;;
6131;SDS011;3097;42.692;23.278;2023-08-30T08:10:28;3.10;;;2.90;;
6131;SDS011;3097;42.692;23.278;2023-08-30T08:12:56;3.65;;;2.97;;
6131;SDS011;3097;42.692;23.278;2023-08-30T08:15:22;4.28;;;3.40;;
6131;SDS011;3097;42.692;23.278;2023-08-30T08:17:47;3.45;;;3.25;;
6131;SDS011;3097;42.692;23.278;2023-08-30T08:20:12;4.53;;;3.63;;
6131;SDS011;3097;42.692;23.278;2023-08-30T08:22:39;3.25;;;2.92;;
6131;SDS011;3097;42.692;23.278;2023-08-30T08:25:04;3.17;;;2.72;;
6131;SDS011;3097;42.692;23.278;2023-08-30T08:27:31;3.88;;;3.10;;
6131;SDS011;3097;42.692;23.278;2023-08-30T08:29:57;3.47;;;3.13;;
6131;SDS011;3097;42.692;23.278;2023-08-30T08:32:22;3.13;;;2.90;;
6131;SDS011;3097;42.692;23.278;2023-08-30T08:34:48;3.38;;;3.10;;
6131;SDS011;3097;42.692;23.278;2023-08-30T08:37:13;3.10;;;2.85;;
6131;SDS011;3097;42.692;23.278;2023-08-30T08:39:39;3.05;;;2.83;;
6131;SDS011;3097;42.692;23.278;2023-08-30T08:42:05;3.88;;;2.30;;
6131;SDS011;3097;42.692;23.278;2023-08-30T08:44:31;2.90;;;2.70;;
6131;SDS011;3097;42.692;23.278;2023-08-30T08:46:59;3.17;;;2.70;;
6131;SDS011;3097;42.692;23.278;2023-08-30T08:49:25;2.95;;;2.65;;
6131;SDS011;3097;42.692;23.278;2023-08-30T08:51:55;4.75;;;3.70;;
6131;SDS011;3097;42.692;23.278;2023-08-30T08:54:21;3.30;;;3.00;;
6131;SDS011;3097;42.692;23.278;2023-08-30T08:56:46;3.28;;;3.08;;
6131;SDS011;3097;42.692;23.278;2023-08-30T08:59:13;3.75;;;2.63;;
6131;SDS011;3097;42.692;23.278;2023-08-30T09:01:39;3.15;;;2.95;;
6131;SDS011;3097;42.692;23.278;2023-08-30T09:04:06;3.05;;;2.70;;
6131;SDS011;3097;42.692;23.278;2023-08-30T09:06:33;2.95;;;2.63;;
6131;SDS011;3097;42.692;23.278;2023-08-30T09:09:00;3.20;;;3.00;;
6131;SDS011;3097;42.692;23.278;2023-08-30T09:11:26;2.90;;;2.60;;
6131;SDS011;3097;42.692;23.278;2023-08-30T09:13:52;3.03;;;2.83;;
6131;SDS011;3097;42.692;23.278;2023-08-30T09:16:17;9.18;;;7.93;;
6131;SDS011;3097;42.692;23.278;2023-08-30T09:18:43;4.32;;;3.92;;
6131;SDS011;3097;42.692;23.278;2023-08-30T09:21:08;3.78;;;3.47;;
6131;SDS011;3097;42.692;23.278;2023-08-30T09:23:35;3.20;;;3.00;;
6131;SDS011;3097;42.692;23.278;2023-08-30T09:26:01;3.35;;;3.15;;
6131;SDS011;3097;42.692;23.278;2023-08-30T09:28:27;4.50;;;3.60;;
6131;SDS011;3097;42.692;23.278;2023-08-30T09:30:53;3.45;;;3.20;;
6131;SDS011;3097;42.692;23.278;2023-08-30T09:33:21;4.05;;;3.75;;
6131;SDS011;3097;42.692;23.278;2023-08-30T09:35:47;4.40;;;4.00;;
6131;SDS011;3097;42.692;23.278;2023-08-30T09:38:16;4.00;;;3.70;;
6131;SDS011;3097;42.692;23.278;2023-08-30T09:40:52;5.07;;;3.97;;
6131;SDS011;3097;42.692;23.278;2023-08-30T09:43:29;4.32;;;3.65;;
6131;SDS011;3097;42.692;23.278;2023-08-30T09:45:54;3.90;;;3.60;;
6131;SDS011;3097;42.692;23.278;2023-08-30T09:48:21;4.18;;;3.88;;
6131;SDS011;3097;42.692;23.278;2023-08-30T09:50:47;4.07;;;3.78;;
6131;SDS011;3097;42.692;23.278;2023-08-30T09:53:17;3.90;;;3.60;;
6131;SDS011;3097;42.692;23.278;2023-08-30T09:55:47;4.45;;;4.15;;
6131;SDS011;3097;42.692;23.278;2023-08-30T09:58:14;4.23;;;3.93;;
6131;SDS011;3097;42.692;23.278;2023-08-30T10:00:40;4.15;;;3.85;;
6131;SDS011;3097;42.692;23.278;2023-08-30T10:03:07;4.25;;;3.90;;
6131;SDS011;3097;42.692;23.278;2023-08-30T10:05:33;4.53;;;4.13;;
6131;SDS011;3097;42.692;23.278;2023-08-30T10:08:00;4.50;;;4.20;;
6131;SDS011;3097;42.692;23.278;2023-08-30T10:10:27;4.27;;;3.97;;
6131;SDS011;3097;42.692;23.278;2023-08-30T10:12:54;4.55;;;4.22;;
6131;SDS011;3097;42.692;23.278;2023-08-30T10:15:21;4.50;;;4.10;;
6131;SDS011;3097;42.692;23.278;2023-08-30T10:17:48;4.87;;;4.47;;
6131;SDS011;3097;42.692;23.278;2023-08-30T10:20:19;4.35;;;4.05;;
6131;SDS011;3097;42.692;23.278;2023-08-30T10:22:44;4.88;;;4.47;;
6131;SDS011;3097;42.692;23.278;2023-08-30T10:25:21;6.90;;;5.20;;
6131;SDS011;3097;42.692;23.278;2023-08-30T10:27:49;5.32;;;4.82;;
6131;SDS011;3097;42.692;23.278;2023-08-30T10:30:21;5.13;;;4.72;;
6131;SDS011;3097;42.692;23.278;2023-08-30T10:32:48;4.78;;;4.38;;
6131;SDS011;3097;42.692;23.278;2023-08-30T10:35:14;4.57;;;4.15;;
6131;SDS011;3097;42.692;23.278;2023-08-30T10:37:41;4.60;;;4.30;;
6131;SDS011;3097;42.692;23.278;2023-08-30T10:40:08;7.45;;;4.50;;
6131;SDS011;3097;42.692;23.278;2023-08-30T10:42:35;6.78;;;4.80;;
6131;SDS011;3097;42.692;23.278;2023-08-30T10:45:01;4.78;;;4.38;;
6131;SDS011;3097;42.692;23.278;2023-08-30T10:47:28;5.20;;;4.63;;
6131;SDS011;3097;42.692;23.278;2023-08-30T10:49:58;4.70;;;4.40;;
6131;SDS011;3097;42.692;23.278;2023-08-30T10:52:25;4.57;;;4.17;;
6131;SDS011;3097;42.692;23.278;2023-08-30T10:54:51;5.40;;;4.90;;
6131;SDS011;3097;42.692;23.278;2023-08-30T10:57:26;4.80;;;4.40;;
6131;SDS011;3097;42.692;23.278;2023-08-30T11:00:07;6.82;;;5.35;;
6131;SDS011;3097;42.692;23.278;2023-08-30T11:02:35;6.80;;;5.00;;
6131;SDS011;3097;42.692;23.278;2023-08-30T11:05:02;8.60;;;5.07;;
6131;SDS011;3097;42.692;23.278;2023-08-30T11:07:28;5.30;;;4.95;;
6131;SDS011;3097;42.692;23.278;2023-08-30T11:09:54;5.85;;;5.28;;
6131;SDS011;3097;42.692;23.278;2023-08-30T11:12:20;5.68;;;5.05;;
6131;SDS011;3097;42.692;23.278;2023-08-30T11:14:51;5.78;;;5.38;;
6131;SDS011;3097;42.692;23.278;2023-08-30T11:17:17;5.20;;;4.80;;
6131;SDS011;3097;42.692;23.278;2023-08-30T11:19:43;5.28;;;4.82;;
6131;SDS011;3097;42.692;23.278;2023-08-30T11:22:09;5.10;;;4.57;;
6131;SDS011;3097;42.692;23.278;2023-08-30T11:24:35;4.65;;;4.25;;
6131;SDS011;3097;42.692;23.278;2023-08-30T11:27:00;5.22;;;4.82;;
6131;SDS011;3097;42.692;23.278;2023-08-30T11:29:26;4.55;;;4.25;;
6131;SDS011;3097;42.692;23.278;2023-08-30T11:31:52;4.50;;;3.85;;
6131;SDS011;3097;42.692;23.278;2023-08-30T11:34:21;4.75;;;4.45;;
6131;SDS011;3097;42.692;23.278;2023-08-30T11:36:50;4.95;;;4.60;;
6131;SDS011;3097;42.692;23.278;2023-08-30T11:39:18;4.47;;;4.07;;
6131;SDS011;3097;42.692;23.278;2023-08-30T11:41:44;4.28;;;3.97;;
6131;SDS011;3097;42.692;23.278;2023-08-30T11:44:09;4.75;;;4.35;;
6131;SDS011;3097;42.692;23.278;2023-08-30T11:46:35;4.63;;;4.10;;
6131;SDS011;3097;42.692;23.278;2023-08-30T11:49:00;6.18;;;4.28;;
6131;SDS011;3097;42.692;23.278;2023-08-30T11:51:27;4.72;;;4.32;;
6131;SDS011;3097;42.692;23.278;2023-08-30T11:53:54;4.43;;;4.07;;
6131;SDS011;3097;42.692;23.278;2023-08-30T11:56:20;3.90;;;3.60;;
6131;SDS011;3097;42.692;23.278;2023-08-30T11:58:46;4.70;;;4.10;;
6131;SDS011;3097;42.692;23.278;2023-08-30T12:01:12;4.70;;;4.40;;
6131;SDS011;3097;42.692;23.278;2023-08-30T12:03:38;5.22;;;4.82;;
6131;SDS011;3097;42.692;23.278;2023-08-30T12:06:08;5.20;;;4.70;;
6131;SDS011;3097;42.692;23.278;2023-08-30T12:08:35;5.97;;;4.80;;
6131;SDS011;3097;42.692;23.278;2023-08-30T12:11:01;5.05;;;4.68;;
6131;SDS011;3097;42.692;23.278;2023-08-30T12:13:31;5.40;;;4.90;;
6131;SDS011;3097;42.692;23.278;2023-08-30T12:15:58;5.20;;;4.68;;
6131;SDS011;3097;42.692;23.278;2023-08-30T12:18:25;5.45;;;4.95;;
6131;SDS011;3097;42.692;23.278;2023-08-30T12:23:21;5.63;;;5.22;;
6131;SDS011;3097;42.692;23.278;2023-08-30T12:25:57;5.00;;;4.60;;
6131;SDS011;3097;42.692;23.278;2023-08-30T12:28:23;4.97;;;4.45;;
6131;SDS011;3097;42.692;23.278;2023-08-30T12:30:48;4.80;;;4.40;;
6131;SDS011;3097;42.692;23.278;2023-08-30T12:33:16;4.75;;;4.43;;
6131;SDS011;3097;42.692;23.278;2023-08-30T12:35:41;4.85;;;4.55;;
6131;SDS011;3097;42.692;23.278;2023-08-30T12:38:07;4.80;;;4.47;;
6131;SDS011;3097;42.692;23.278;2023-08-30T12:40:32;4.82;;;4.40;;
6131;SDS011;3097;42.692;23.278;2023-08-30T12:42:57;4.70;;;4.30;;
6131;SDS011;3097;42.692;23.278;2023-08-30T12:45:23;4.47;;;4.07;;
6131;SDS011;3097;42.692;23.278;2023-08-30T12:47:48;4.30;;;3.90;;
6131;SDS011;3097;42.692;23.278;2023-08-30T12:50:14;4.30;;;3.97;;
6131;SDS011;3097;42.692;23.278;2023-08-30T12:52:39;4.13;;;3.72;;
6131;SDS011;3097;42.692;23.278;2023-08-30T12:55:05;6.60;;;4.50;;
6131;SDS011;3097;42.692;23.278;2023-08-30T12:57:30;4.80;;;4.40;;
6131;SDS011;3097;42.692;23.278;2023-08-30T12:59:56;8.80;;;4.38;;
6131;SDS011;3097;42.692;23.278;2023-08-30T13:02:21;4.90;;;4.60;;
6131;SDS011;3097;42.692;23.278;2023-08-30T13:04:47;4.30;;;3.45;;
6131;SDS011;3097;42.692;23.278;2023-08-30T13:07:12;5.65;;;3.83;;
6131;SDS011;3097;42.692;23.278;2023-08-30T13:09:37;3.97;;;3.67;;
6131;SDS011;3097;42.692;23.278;2023-08-30T13:12:03;4.05;;;3.75;;
6131;SDS011;3097;42.692;23.278;2023-08-30T13:14:29;3.70;;;3.40;;
6131;SDS011;3097;42.692;23.278;2023-08-30T13:16:54;4.25;;;3.90;;
6131;SDS011;3097;42.692;23.278;2023-08-30T13:19:20;4.22;;;3.63;;
6131;SDS011;3097;42.692;23.278;2023-08-30T13:21:45;4.10;;;3.70;;
6131;SDS011;3097;42.692;23.278;2023-08-30T13:24:11;3.88;;;3.58;;
6131;SDS011;3097;42.692;23.278;2023-08-30T13:26:37;3.83;;;3.53;;
6131;SDS011;3097;42.692;23.278;2023-08-30T13:29:02;4.47;;;3.45;;
6131;SDS011;3097;42.692;23.278;2023-08-30T13:31:28;3.58;;;3.28;;
6131;SDS011;3097;42.692;23.278;2023-08-30T13:33:53;3.90;;;3.50;;
6131;SDS011;3097;42.692;23.278;2023-08-30T13:36:19;3.83;;;3.40;;
6131;SDS011;3097;42.692;23.278;2023-08-30T13:38:44;3.28;;;3.05;;
6131;SDS011;3097;42.692;23.278;2023-08-30T13:41:09;3.70;;;3.40;;
6131;SDS011;3097;42.692;23.278;2023-08-30T13:43:35;3.70;;;3.40;;
6131;SDS011;3097;42.692;23.278;2023-08-30T13:46:00;3.65;;;3.35;;
6131;SDS011;3097;42.692;23.278;2023-08-30T13:48:26;3.75;;;3.30;;
6131;SDS011;3097;42.692;23.278;2023-08-30T13:50:51;3.60;;;3.30;;
6131;SDS011;3097;42.692;23.278;2023-08-30T13:53:16;3.95;;;3.60;;
6131;SDS011;3097;42.692;23.278;2023-08-30T13:55:46;3.38;;;3.17;;
6131;SDS011;3097;42.692;23.278;2023-08-30T13:58:15;3.55;;;3.25;;
6131;SDS011;3097;42.692;23.278;2023-08-30T14:00:41;4.45;;;3.33;;
6131;SDS011;3097;42.692;23.278;2023-08-30T14:03:06;3.30;;;3.10;;
6131;SDS011;3097;42.692;23.278;2023-08-30T14:05:33;3.30;;;3.10;;
6131;SDS011;3097;42.692;23.278;2023-08-30T14:07:58;3.38;;;3.17;;
6131;SDS011;3097;42.692;23.278;2023-08-30T14:10:26;3.70;;;3.40;;
6131;SDS011;3097;42.692;23.278;2023-08-30T14:12:51;3.53;;;3.22;;
6131;SDS011;3097;42.692;23.278;2023-08-30T14:15:17;3.90;;;3.47;;
6131;SDS011;3097;42.692;23.278;2023-08-30T14:17:43;3.30;;;3.00;;
6131;SDS011;3097;42.692;23.278;2023-08-30T14:20:08;3.25;;;3.05;;
6131;SDS011;3097;42.692;23.278;2023-08-30T14:22:34;4.10;;;2.88;;
6131;SDS011;3097;42.692;23.278;2023-08-30T14:25:00;3.78;;;3.30;;
6131;SDS011;3097;42.692;23.278;2023-08-30T14:27:27;3.30;;;3.00;;
6131;SDS011;3097;42.692;23.278;2023-08-30T14:29:52;4.18;;;2.88;;
6131;SDS011;3097;42.692;23.278;2023-08-30T14:32:18;2.47;;;2.28;;
6131;SDS011;3097;42.692;23.278;2023-08-30T14:34:43;2.88;;;2.67;;
6131;SDS011;3097;42.692;23.278;2023-08-30T14:37:09;3.05;;;2.85;;
6131;SDS011;3097;42.692;23.278;2023-08-30T14:39:34;2.60;;;2.40;;
6131;SDS011;3097;42.692;23.278;2023-08-30T14:42:00;2.50;;;2.30;;
6131;SDS011;3097;42.692;23.278;2023-08-30T14:44:25;3.22;;;2.95;;
6131;SDS011;3097;42.692;23.278;2023-08-30T14:46:51;2.88;;;2.67;;
6131;SDS011;3097;42.692;23.278;2023-08-30T14:49:17;5.50;;;3.60;;
6131;SDS011;3097;42.692;23.278;2023-08-30T14:51:43;4.50;;;3.20;;
6131;SDS011;3097;42.692;23.278;2023-08-30T14:54:08;3.70;;;3.20;;
6131;SDS011;3097;42.692;23.278;2023-08-30T14:56:34;3.15;;;2.90;;
6131;SDS011;3097;42.692;23.278;2023-08-30T14:58:59;3.10;;;2.90;;
6131;SDS011;3097;42.692;23.278;2023-08-30T15:01:25;3.90;;;2.87;;
6131;SDS011;3097;42.692;23.278;2023-08-30T15:03:50;2.77;;;2.57;;
6131;SDS011;3097;42.692;23.278;2023-08-30T15:06:17;3.50;;;3.30;;